sensor_id;sensor_type;location;lat;lon;timestamp;P1;durP1;ratioP1;P2;durP2;ratioP2
64560;SDS011;50960;46.838;16.838;2024-03-22T00:00:57;14.18;;;12.68;;
64560;SDS011;50960;46.838;16.838;2024-03-22T00:03:23;14.32;;;12.40;;
64560;SDS011;50960;46.838;16.838;2024-03-22T00:05:51;15.52;;;13.00;;
64560;SDS011;50960;46.838;16.838;2024-03-22T00:08:17;12.35;;;11.00;;
64560;SDS011;50960;46.838;16.838;2024-03-22T00:10:44;12.90;;;11.60;;
64560;SDS011;50960;46.838;16.838;2024-03-22T00:13:10;13.65;;;11.02;;
64560;SDS011;50960;46.838;16.838;2024-03-22T00:15:37;11.10;;;10.10;;
64560;SDS011;50960;46.838;16.838;2024-03-22T00:18:04;11.95;;;10.75;;
64560;SDS011;50960;46.838;16.838;2024-03-22T00:20:30;11.55;;;10.35;;
64560;SDS011;50960;46.838;16.838;2024-03-22T00:22:57;10.65;;;9.57;;
64560;SDS011;50960;46.838;16.838;2024-03-22T00:25:23;10.57;;;9.60;;
64560;SDS011;50960;46.838;16.838;2024-03-22T00:27:50;10.55;;;9.55;;
64560;SDS011;50960;46.838;16.838;2024-03-22T00:30:16;10.40;;;9.38;;
64560;SDS011;50960;46.838;16.838;2024-03-22T00:32:43;11.00;;;9.95;;
64560;SDS011;50960;46.838;16.838;2024-03-22T00:35:10;10.77;;;9.75;;
64560;SDS011;50960;46.838;16.838;2024-03-22T00:37:36;11.73;;;10.55;;
64560;SDS011;50960;46.838;16.838;2024-03-22T00:40:03;11.05;;;9.95;;
64560;SDS011;50960;46.838;16.838;2024-03-22T00:42:30;12.65;;;11.45;;
64560;SDS011;50960;46.838;16.838;2024-03-22T00:44:56;11.75;;;10.65;;
64560;SDS011;50960;46.838;16.838;2024-03-22T00:47:23;11.30;;;10.20;;
64560;SDS011;50960;46.838;16.838;2024-03-22T00:49:50;11.25;;;10.25;;
64560;SDS011;50960;46.838;16.838;2024-03-22T00:52:16;10.82;;;9.82;;
64560;SDS011;50960;46.838;16.838;2024-03-22T00:54:42;10.75;;;9.75;;
64560;SDS011;50960;46.838;16.838;2024-03-22T00:57:09;13.35;;;12.05;;
64560;SDS011;50960;46.838;16.838;2024-03-22T00:59:36;14.27;;;12.85;;
64560;SDS011;50960;46.838;16.838;2024-03-22T01:02:03;14.68;;;12.82;;
64560;SDS011;50960;46.838;16.838;2024-03-22T01:04:29;14.15;;;12.73;;
64560;SDS011;50960;46.838;16.838;2024-03-22T01:06:56;14.73;;;13.23;;
64560;SDS011;50960;46.838;16.838;2024-03-22T01:09:22;14.57;;;13.13;;
64560;SDS011;50960;46.838;16.838;2024-03-22T01:11:49;14.25;;;12.85;;
64560;SDS011;50960;46.838;16.838;2024-03-22T01:14:15;14.90;;;13.32;;
64560;SDS011;50960;46.838;16.838;2024-03-22T01:16:42;14.00;;;12.57;;
64560;SDS011;50960;46.838;16.838;2024-03-22T01:19:08;12.93;;;11.63;;
64560;SDS011;50960;46.838;16.838;2024-03-22T01:21:35;13.27;;;11.98;;
64560;SDS011;50960;46.838;16.838;2024-03-22T01:24:02;13.52;;;12.13;;
64560;SDS011;50960;46.838;16.838;2024-03-22T01:26:28;13.45;;;12.10;;
64560;SDS011;50960;46.838;16.838;2024-03-22T01:28:55;15.10;;;12.25;;
64560;SDS011;50960;46.838;16.838;2024-03-22T01:31:21;13.18;;;11.88;;
64560;SDS011;50960;46.838;16.838;2024-03-22T01:33:48;12.65;;;11.35;;
64560;SDS011;50960;46.838;16.838;2024-03-22T01:36:14;13.00;;;11.63;;
64560;SDS011;50960;46.838;16.838;2024-03-22T01:38:41;13.13;;;11.80;;
64560;SDS011;50960;46.838;16.838;2024-03-22T01:41:07;12.75;;;11.55;;
64560;SDS011;50960;46.838;16.838;2024-03-22T01:43:34;12.93;;;11.43;;
64560;SDS011;50960;46.838;16.838;2024-03-22T01:46:00;12.20;;;10.98;;
64560;SDS011;50960;46.838;16.838;2024-03-22T01:48:27;13.75;;;11.65;;
64560;SDS011;50960;46.838;16.838;2024-03-22T01:50:54;13.20;;;11.80;;
64560;SDS011;50960;46.838;16.838;2024-03-22T01:53:20;13.52;;;12.02;;
64560;SDS011;50960;46.838;16.838;2024-03-22T01:55:47;12.55;;;11.32;;
64560;SDS011;50960;46.838;16.838;2024-03-22T01:58:13;13.23;;;11.93;;
64560;SDS011;50960;46.838;16.838;2024-03-22T02:00:40;13.27;;;11.98;;
64560;SDS011;50960;46.838;16.838;2024-03-22T02:03:07;12.85;;;11.55;;
64560;SDS011;50960;46.838;16.838;2024-03-22T02:05:33;12.60;;;11.40;;
64560;SDS011;50960;46.838;16.838;2024-03-22T02:08:00;12.25;;;11.05;;
64560;SDS011;50960;46.838;16.838;2024-03-22T02:10:26;13.02;;;11.77;;
64560;SDS011;50960;46.838;16.838;2024-03-22T02:12:53;13.25;;;11.95;;
64560;SDS011;50960;46.838;16.838;2024-03-22T02:15:20;12.48;;;11.25;;
64560;SDS011;50960;46.838;16.838;2024-03-22T02:17:46;12.68;;;11.38;;
64560;SDS011;50960;46.838;16.838;2024-03-22T02:20:13;12.88;;;11.57;;
64560;SDS011;50960;46.838;16.838;2024-03-22T02:22:39;12.43;;;11.23;;
64560;SDS011;50960;46.838;16.838;2024-03-22T02:25:06;12.73;;;11.43;;
64560;SDS011;50960;46.838;16.838;2024-03-22T02:27:33;12.80;;;11.57;;
64560;SDS011;50960;46.838;16.838;2024-03-22T02:30:00;12.40;;;11.20;;
64560;SDS011;50960;46.838;16.838;2024-03-22T02:32:27;12.65;;;11.45;;
64560;SDS011;50960;46.838;16.838;2024-03-22T02:34:54;12.95;;;11.57;;
64560;SDS011;50960;46.838;16.838;2024-03-22T02:37:21;13.10;;;11.80;;
64560;SDS011;50960;46.838;16.838;2024-03-22T02:39:47;12.85;;;11.55;;
64560;SDS011;50960;46.838;16.838;2024-03-22T02:42:15;12.20;;;11.00;;
64560;SDS011;50960;46.838;16.838;2024-03-22T02:44:41;12.98;;;11.65;;
64560;SDS011;50960;46.838;16.838;2024-03-22T02:47:11;13.27;;;10.75;;
64560;SDS011;50960;46.838;16.838;2024-03-22T02:49:40;11.13;;;10.13;;
64560;SDS011;50960;46.838;16.838;2024-03-22T02:52:06;11.48;;;10.38;;
64560;SDS011;50960;46.838;16.838;2024-03-22T02:54:33;11.88;;;10.43;;
64560;SDS011;50960;46.838;16.838;2024-03-22T02:56:59;12.60;;;11.32;;
64560;SDS011;50960;46.838;16.838;2024-03-22T02:59:27;11.95;;;10.77;;
64560;SDS011;50960;46.838;16.838;2024-03-22T03:01:54;12.30;;;11.07;;
64560;SDS011;50960;46.838;16.838;2024-03-22T03:04:20;13.05;;;11.77;;
64560;SDS011;50960;46.838;16.838;2024-03-22T03:06:47;12.05;;;10.95;;
64560;SDS011;50960;46.838;16.838;2024-03-22T03:09:13;11.82;;;10.75;;
64560;SDS011;50960;46.838;16.838;2024-03-22T03:11:40;13.48;;;11.15;;
64560;SDS011;50960;46.838;16.838;2024-03-22T03:14:07;13.63;;;11.15;;
64560;SDS011;50960;46.838;16.838;2024-03-22T03:16:33;11.43;;;10.23;;
64560;SDS011;50960;46.838;16.838;2024-03-22T03:19:00;12.48;;;11.15;;
64560;SDS011;50960;46.838;16.838;2024-03-22T03:21:26;10.65;;;9.73;;
64560;SDS011;50960;46.838;16.838;2024-03-22T03:23:53;10.98;;;9.88;;
64560;SDS011;50960;46.838;16.838;2024-03-22T03:26:19;11.10;;;9.90;;
64560;SDS011;50960;46.838;16.838;2024-03-22T03:28:46;11.07;;;9.98;;
64560;SDS011;50960;46.838;16.838;2024-03-22T03:31:12;11.70;;;10.50;;
64560;SDS011;50960;46.838;16.838;2024-03-22T03:33:39;11.68;;;10.55;;
64560;SDS011;50960;46.838;16.838;2024-03-22T03:36:06;11.32;;;10.23;;
64560;SDS011;50960;46.838;16.838;2024-03-22T03:38:32;10.98;;;9.95;;
64560;SDS011;50960;46.838;16.838;2024-03-22T03:40:59;11.10;;;9.95;;
64560;SDS011;50960;46.838;16.838;2024-03-22T03:43:25;11.55;;;10.45;;
64560;SDS011;50960;46.838;16.838;2024-03-22T03:45:52;11.32;;;10.20;;
64560;SDS011;50960;46.838;16.838;2024-03-22T03:48:19;11.13;;;10.07;;
64560;SDS011;50960;46.838;16.838;2024-03-22T03:50:53;11.55;;;10.40;;
64560;SDS011;50960;46.838;16.838;2024-03-22T03:53:21;10.52;;;9.55;;
64560;SDS011;50960;46.838;16.838;2024-03-22T03:55:47;9.75;;;8.85;;
64560;SDS011;50960;46.838;16.838;2024-03-22T03:58:14;11.15;;;9.98;;
64560;SDS011;50960;46.838;16.838;2024-03-22T04:00:41;10.30;;;9.30;;
64560;SDS011;50960;46.838;16.838;2024-03-22T04:03:08;9.82;;;8.82;;
64560;SDS011;50960;46.838;16.838;2024-03-22T04:05:34;9.48;;;8.57;;
64560;SDS011;50960;46.838;16.838;2024-03-22T04:08:01;9.82;;;8.82;;
64560;SDS011;50960;46.838;16.838;2024-03-22T04:10:27;9.73;;;8.73;;
64560;SDS011;50960;46.838;16.838;2024-03-22T04:12:54;9.50;;;8.65;;
64560;SDS011;50960;46.838;16.838;2024-03-22T04:15:20;9.80;;;8.77;;
64560;SDS011;50960;46.838;16.838;2024-03-22T04:17:47;9.40;;;8.60;;
64560;SDS011;50960;46.838;16.838;2024-03-22T04:20:13;9.90;;;8.90;;
64560;SDS011;50960;46.838;16.838;2024-03-22T04:22:40;10.30;;;9.30;;
64560;SDS011;50960;46.838;16.838;2024-03-22T04:25:06;9.90;;;8.85;;
64560;SDS011;50960;46.838;16.838;2024-03-22T04:27:37;9.63;;;8.73;;
64560;SDS011;50960;46.838;16.838;2024-03-22T04:30:03;11.73;;;9.55;;
64560;SDS011;50960;46.838;16.838;2024-03-22T04:32:30;9.90;;;8.98;;
64560;SDS011;50960;46.838;16.838;2024-03-22T04:34:56;10.82;;;9.60;;
64560;SDS011;50960;46.838;16.838;2024-03-22T04:37:23;10.38;;;9.38;;
64560;SDS011;50960;46.838;16.838;2024-03-22T04:39:49;10.95;;;9.85;;
64560;SDS011;50960;46.838;16.838;2024-03-22T04:42:17;10.40;;;9.45;;
64560;SDS011;50960;46.838;16.838;2024-03-22T04:44:43;10.88;;;9.73;;
64560;SDS011;50960;46.838;16.838;2024-03-22T04:47:10;11.45;;;10.05;;
64560;SDS011;50960;46.838;16.838;2024-03-22T04:49:36;11.18;;;10.00;;
64560;SDS011;50960;46.838;16.838;2024-03-22T04:52:03;10.98;;;9.80;;
64560;SDS011;50960;46.838;16.838;2024-03-22T04:54:29;11.77;;;10.52;;
64560;SDS011;50960;46.838;16.838;2024-03-22T04:56:56;12.23;;;9.70;;
64560;SDS011;50960;46.838;16.838;2024-03-22T04:59:22;11.20;;;10.15;;
64560;SDS011;50960;46.838;16.838;2024-03-22T05:01:49;10.32;;;9.32;;
64560;SDS011;50960;46.838;16.838;2024-03-22T05:04:15;10.77;;;9.73;;
64560;SDS011;50960;46.838;16.838;2024-03-22T05:06:42;11.38;;;9.93;;
64560;SDS011;50960;46.838;16.838;2024-03-22T05:09:09;11.15;;;9.98;;
64560;SDS011;50960;46.838;16.838;2024-03-22T05:11:36;10.93;;;9.93;;
64560;SDS011;50960;46.838;16.838;2024-03-22T05:14:02;11.25;;;10.25;;
64560;SDS011;50960;46.838;16.838;2024-03-22T05:16:29;12.00;;;10.25;;
64560;SDS011;50960;46.838;16.838;2024-03-22T05:18:55;11.55;;;10.07;;
64560;SDS011;50960;46.838;16.838;2024-03-22T05:21:22;10.98;;;9.90;;
64560;SDS011;50960;46.838;16.838;2024-03-22T05:23:48;11.02;;;9.77;;
64560;SDS011;50960;46.838;16.838;2024-03-22T05:26:15;10.25;;;9.32;;
64560;SDS011;50960;46.838;16.838;2024-03-22T05:28:44;10.60;;;8.77;;
64560;SDS011;50960;46.838;16.838;2024-03-22T05:31:10;13.90;;;10.18;;
64560;SDS011;50960;46.838;16.838;2024-03-22T05:33:37;10.85;;;9.82;;
64560;SDS011;50960;46.838;16.838;2024-03-22T05:36:03;10.88;;;9.77;;
64560;SDS011;50960;46.838;16.838;2024-03-22T05:38:30;10.98;;;9.77;;
64560;SDS011;50960;46.838;16.838;2024-03-22T05:40:56;11.13;;;9.65;;
64560;SDS011;50960;46.838;16.838;2024-03-22T05:43:23;11.63;;;10.43;;
64560;SDS011;50960;46.838;16.838;2024-03-22T05:45:49;10.07;;;9.07;;
64560;SDS011;50960;46.838;16.838;2024-03-22T05:48:16;10.38;;;9.30;;
64560;SDS011;50960;46.838;16.838;2024-03-22T05:50:42;10.85;;;9.18;;
64560;SDS011;50960;46.838;16.838;2024-03-22T05:53:09;12.00;;;9.50;;
64560;SDS011;50960;46.838;16.838;2024-03-22T05:55:36;10.43;;;8.88;;
64560;SDS011;50960;46.838;16.838;2024-03-22T05:58:03;10.25;;;9.27;;
64560;SDS011;50960;46.838;16.838;2024-03-22T06:00:30;11.65;;;9.82;;
64560;SDS011;50960;46.838;16.838;2024-03-22T06:02:57;10.60;;;9.52;;
64560;SDS011;50960;46.838;16.838;2024-03-22T06:05:23;11.40;;;10.30;;
64560;SDS011;50960;46.838;16.838;2024-03-22T06:07:50;10.90;;;9.80;;
64560;SDS011;50960;46.838;16.838;2024-03-22T06:10:16;11.63;;;10.20;;
64560;SDS011;50960;46.838;16.838;2024-03-22T06:12:43;14.25;;;11.68;;
64560;SDS011;50960;46.838;16.838;2024-03-22T06:15:12;14.20;;;11.88;;
64560;SDS011;50960;46.838;16.838;2024-03-22T06:17:39;13.27;;;10.88;;
64560;SDS011;50960;46.838;16.838;2024-03-22T06:20:07;13.73;;;11.65;;
64560;SDS011;50960;46.838;16.838;2024-03-22T06:22:35;11.77;;;10.57;;
64560;SDS011;50960;46.838;16.838;2024-03-22T06:25:01;11.70;;;10.50;;
64560;SDS011;50960;46.838;16.838;2024-03-22T06:27:29;11.43;;;10.32;;
64560;SDS011;50960;46.838;16.838;2024-03-22T06:29:55;10.50;;;9.40;;
64560;SDS011;50960;46.838;16.838;2024-03-22T06:32:22;10.73;;;9.63;;
64560;SDS011;50960;46.838;16.838;2024-03-22T06:34:48;12.63;;;9.52;;
64560;SDS011;50960;46.838;16.838;2024-03-22T06:37:15;15.25;;;9.85;;
64560;SDS011;50960;46.838;16.838;2024-03-22T06:39:41;10.77;;;9.50;;
64560;SDS011;50960;46.838;16.838;2024-03-22T06:42:08;10.80;;;9.73;;
64560;SDS011;50960;46.838;16.838;2024-03-22T06:44:34;10.63;;;9.52;;
64560;SDS011;50960;46.838;16.838;2024-03-22T06:47:01;10.40;;;9.35;;
64560;SDS011;50960;46.838;16.838;2024-03-22T06:49:28;10.68;;;9.23;;
64560;SDS011;50960;46.838;16.838;2024-03-22T06:52:03;10.13;;;8.65;;
64560;SDS011;50960;46.838;16.838;2024-03-22T06:54:30;9.45;;;8.45;;
64560;SDS011;50960;46.838;16.838;2024-03-22T06:56:57;9.88;;;7.72;;
64560;SDS011;50960;46.838;16.838;2024-03-22T06:59:23;8.10;;;7.38;;
64560;SDS011;50960;46.838;16.838;2024-03-22T07:01:50;8.15;;;7.38;;
64560;SDS011;50960;46.838;16.838;2024-03-22T07:04:16;7.50;;;6.88;;
64560;SDS011;50960;46.838;16.838;2024-03-22T07:06:45;9.02;;;7.00;;
64560;SDS011;50960;46.838;16.838;2024-03-22T07:09:12;8.90;;;8.10;;
64560;SDS011;50960;46.838;16.838;2024-03-22T07:11:38;9.23;;;8.32;;
64560;SDS011;50960;46.838;16.838;2024-03-22T07:14:05;6.60;;;6.00;;
64560;SDS011;50960;46.838;16.838;2024-03-22T07:16:31;6.85;;;6.18;;
64560;SDS011;50960;46.838;16.838;2024-03-22T07:18:58;7.90;;;6.25;;
64560;SDS011;50960;46.838;16.838;2024-03-22T07:21:25;6.22;;;5.63;;
64560;SDS011;50960;46.838;16.838;2024-03-22T07:23:51;6.35;;;5.72;;
64560;SDS011;50960;46.838;16.838;2024-03-22T07:26:18;7.60;;;6.20;;
64560;SDS011;50960;46.838;16.838;2024-03-22T07:28:44;6.75;;;6.15;;
64560;SDS011;50960;46.838;16.838;2024-03-22T07:31:11;7.47;;;6.72;;
64560;SDS011;50960;46.838;16.838;2024-03-22T07:33:39;7.85;;;7.15;;
64560;SDS011;50960;46.838;16.838;2024-03-22T07:36:06;8.18;;;7.38;;
64560;SDS011;50960;46.838;16.838;2024-03-22T07:38:32;8.18;;;7.38;;
64560;SDS011;50960;46.838;16.838;2024-03-22T07:40:59;8.93;;;7.70;;
64560;SDS011;50960;46.838;16.838;2024-03-22T07:43:26;9.75;;;8.55;;
64560;SDS011;50960;46.838;16.838;2024-03-22T07:45:52;10.40;;;9.30;;
64560;SDS011;50960;46.838;16.838;2024-03-22T07:48:19;12.68;;;8.90;;
64560;SDS011;50960;46.838;16.838;2024-03-22T07:50:46;7.95;;;7.20;;
64560;SDS011;50960;46.838;16.838;2024-03-22T07:53:12;7.22;;;6.53;;
64560;SDS011;50960;46.838;16.838;2024-03-22T07:55:39;8.80;;;7.20;;
64560;SDS011;50960;46.838;16.838;2024-03-22T07:58:05;6.38;;;5.78;;
64560;SDS011;50960;46.838;16.838;2024-03-22T08:00:32;7.00;;;6.30;;
64560;SDS011;50960;46.838;16.838;2024-03-22T08:02:59;6.88;;;6.28;;
64560;SDS011;50960;46.838;16.838;2024-03-22T08:05:25;6.85;;;6.20;;
64560;SDS011;50960;46.838;16.838;2024-03-22T08:07:52;7.03;;;6.32;;
64560;SDS011;50960;46.838;16.838;2024-03-22T08:10:18;8.30;;;6.30;;
64560;SDS011;50960;46.838;16.838;2024-03-22T08:12:45;6.65;;;6.05;;
64560;SDS011;50960;46.838;16.838;2024-03-22T08:15:11;6.95;;;6.35;;
64560;SDS011;50960;46.838;16.838;2024-03-22T08:17:38;6.50;;;5.90;;
64560;SDS011;50960;46.838;16.838;2024-03-22T08:20:05;9.57;;;7.15;;
64560;SDS011;50960;46.838;16.838;2024-03-22T08:22:32;7.82;;;6.60;;
64560;SDS011;50960;46.838;16.838;2024-03-22T08:24:58;9.90;;;7.30;;
64560;SDS011;50960;46.838;16.838;2024-03-22T08:27:27;9.48;;;6.88;;
64560;SDS011;50960;46.838;16.838;2024-03-22T08:29:54;7.50;;;6.70;;
64560;SDS011;50960;46.838;16.838;2024-03-22T08:32:20;7.25;;;6.53;;
64560;SDS011;50960;46.838;16.838;2024-03-22T08:34:46;7.20;;;6.50;;
64560;SDS011;50960;46.838;16.838;2024-03-22T08:37:13;8.10;;;6.18;;
64560;SDS011;50960;46.838;16.838;2024-03-22T08:39:39;6.50;;;5.90;;
64560;SDS011;50960;46.838;16.838;2024-03-22T08:42:06;7.75;;;7.05;;
64560;SDS011;50960;46.838;16.838;2024-03-22T08:44:35;10.38;;;8.07;;
64560;SDS011;50960;46.838;16.838;2024-03-22T08:47:01;8.20;;;7.40;;
64560;SDS011;50960;46.838;16.838;2024-03-22T08:49:28;9.18;;;8.27;;
64560;SDS011;50960;46.838;16.838;2024-03-22T08:51:55;8.57;;;7.45;;
64560;SDS011;50960;46.838;16.838;2024-03-22T08:54:22;9.30;;;7.65;;
64560;SDS011;50960;46.838;16.838;2024-03-22T08:56:48;8.60;;;7.50;;
64560;SDS011;50960;46.838;16.838;2024-03-22T08:59:16;7.72;;;7.03;;
64560;SDS011;50960;46.838;16.838;2024-03-22T09:01:42;8.43;;;7.10;;
64560;SDS011;50960;46.838;16.838;2024-03-22T09:04:09;8.13;;;7.32;;
64560;SDS011;50960;46.838;16.838;2024-03-22T09:06:35;8.82;;;7.95;;
64560;SDS011;50960;46.838;16.838;2024-03-22T09:09:02;9.32;;;8.43;;
64560;SDS011;50960;46.838;16.838;2024-03-22T09:11:28;8.52;;;7.65;;
64560;SDS011;50960;46.838;16.838;2024-03-22T09:13:55;10.73;;;8.30;;
64560;SDS011;50960;46.838;16.838;2024-03-22T09:16:22;9.40;;;8.50;;
64560;SDS011;50960;46.838;16.838;2024-03-22T09:18:49;9.25;;;8.38;;
64560;SDS011;50960;46.838;16.838;2024-03-22T09:21:16;13.10;;;10.75;;
64560;SDS011;50960;46.838;16.838;2024-03-22T09:23:42;10.20;;;9.20;;
64560;SDS011;50960;46.838;16.838;2024-03-22T09:26:09;10.00;;;9.00;;
64560;SDS011;50960;46.838;16.838;2024-03-22T09:28:35;9.43;;;8.30;;
64560;SDS011;50960;46.838;16.838;2024-03-22T09:31:06;9.45;;;8.43;;
64560;SDS011;50960;46.838;16.838;2024-03-22T09:33:36;8.00;;;7.30;;
64560;SDS011;50960;46.838;16.838;2024-03-22T09:36:02;8.27;;;7.38;;
64560;SDS011;50960;46.838;16.838;2024-03-22T09:38:29;8.63;;;7.82;;
64560;SDS011;50960;46.838;16.838;2024-03-22T09:40:55;9.75;;;8.00;;
64560;SDS011;50960;46.838;16.838;2024-03-22T09:43:22;8.50;;;7.80;;
64560;SDS011;50960;46.838;16.838;2024-03-22T09:45:49;8.13;;;7.43;;
64560;SDS011;50960;46.838;16.838;2024-03-22T09:48:19;7.82;;;7.00;;
64560;SDS011;50960;46.838;16.838;2024-03-22T09:50:45;6.22;;;5.63;;
64560;SDS011;50960;46.838;16.838;2024-03-22T09:53:19;6.10;;;5.50;;
64560;SDS011;50960;46.838;16.838;2024-03-22T09:55:46;5.65;;;5.18;;
64560;SDS011;50960;46.838;16.838;2024-03-22T09:58:13;6.05;;;5.30;;
64560;SDS011;50960;46.838;16.838;2024-03-22T10:00:40;5.88;;;5.28;;
64560;SDS011;50960;46.838;16.838;2024-03-22T10:03:06;6.05;;;5.30;;
64560;SDS011;50960;46.838;16.838;2024-03-22T10:05:34;6.43;;;5.60;;
64560;SDS011;50960;46.838;16.838;2024-03-22T10:08:00;8.85;;;6.90;;
64560;SDS011;50960;46.838;16.838;2024-03-22T10:10:27;6.35;;;5.80;;
64560;SDS011;50960;46.838;16.838;2024-03-22T10:12:53;5.60;;;5.07;;
64560;SDS011;50960;46.838;16.838;2024-03-22T10:15:20;5.97;;;5.45;;
64560;SDS011;50960;46.838;16.838;2024-03-22T10:17:46;6.15;;;5.50;;
64560;SDS011;50960;46.838;16.838;2024-03-22T10:20:13;7.63;;;5.00;;
64560;SDS011;50960;46.838;16.838;2024-03-22T10:22:43;6.35;;;5.75;;
64560;SDS011;50960;46.838;16.838;2024-03-22T10:25:14;5.90;;;5.32;;
64560;SDS011;50960;46.838;16.838;2024-03-22T10:27:40;5.63;;;5.20;;
64560;SDS011;50960;46.838;16.838;2024-03-22T10:30:08;6.10;;;5.60;;
64560;SDS011;50960;46.838;16.838;2024-03-22T10:32:35;6.43;;;5.57;;
64560;SDS011;50960;46.838;16.838;2024-03-22T10:35:03;5.60;;;5.10;;
64560;SDS011;50960;46.838;16.838;2024-03-22T10:37:35;5.95;;;5.40;;
64560;SDS011;50960;46.838;16.838;2024-03-22T10:40:02;5.65;;;5.15;;
64560;SDS011;50960;46.838;16.838;2024-03-22T10:45:01;5.93;;;5.43;;
64560;SDS011;50960;46.838;16.838;2024-03-22T10:47:29;5.85;;;5.28;;
64560;SDS011;50960;46.838;16.838;2024-03-22T10:50:03;6.45;;;5.60;;
64560;SDS011;50960;46.838;16.838;2024-03-22T10:55:04;8.73;;;5.00;;
64560;SDS011;50960;46.838;16.838;2024-03-22T10:57:32;5.30;;;4.80;;
64560;SDS011;50960;46.838;16.838;2024-03-22T11:00:03;5.60;;;5.10;;
64560;SDS011;50960;46.838;16.838;2024-03-22T11:02:35;7.53;;;5.35;;
64560;SDS011;50960;46.838;16.838;2024-03-22T11:05:03;6.25;;;5.40;;
64560;SDS011;50960;46.838;16.838;2024-03-22T11:07:30;5.25;;;4.85;;
64560;SDS011;50960;46.838;16.838;2024-03-22T11:09:58;5.53;;;4.80;;
64560;SDS011;50960;46.838;16.838;2024-03-22T11:12:25;4.90;;;4.40;;
64560;SDS011;50960;46.838;16.838;2024-03-22T11:14:52;5.57;;;5.07;;
64560;SDS011;50960;46.838;16.838;2024-03-22T11:17:19;5.07;;;4.57;;
64560;SDS011;50960;46.838;16.838;2024-03-22T11:19:50;5.10;;;4.70;;
64560;SDS011;50960;46.838;16.838;2024-03-22T11:22:17;5.78;;;4.07;;
64560;SDS011;50960;46.838;16.838;2024-03-22T11:24:44;5.18;;;4.68;;
64560;SDS011;50960;46.838;16.838;2024-03-22T11:27:11;5.82;;;5.32;;
64560;SDS011;50960;46.838;16.838;2024-03-22T11:29:37;5.10;;;4.47;;
64560;SDS011;50960;46.838;16.838;2024-03-22T11:32:07;3.95;;;3.65;;
64560;SDS011;50960;46.838;16.838;2024-03-22T11:34:36;4.10;;;3.80;;
64560;SDS011;50960;46.838;16.838;2024-03-22T11:37:03;4.13;;;3.72;;
64560;SDS011;50960;46.838;16.838;2024-03-22T11:39:30;4.15;;;3.83;;
64560;SDS011;50960;46.838;16.838;2024-03-22T11:41:56;5.10;;;4.10;;
64560;SDS011;50960;46.838;16.838;2024-03-22T11:44:23;4.50;;;4.10;;
64560;SDS011;50960;46.838;16.838;2024-03-22T11:46:51;5.20;;;4.47;;
64560;SDS011;50960;46.838;16.838;2024-03-22T11:49:18;6.70;;;4.90;;
64560;SDS011;50960;46.838;16.838;2024-03-22T11:51:45;4.57;;;4.15;;
64560;SDS011;50960;46.838;16.838;2024-03-22T11:54:11;5.10;;;4.60;;
64560;SDS011;50960;46.838;16.838;2024-03-22T11:56:39;4.95;;;4.28;;
64560;SDS011;50960;46.838;16.838;2024-03-22T11:59:06;4.82;;;4.25;;
64560;SDS011;50960;46.838;16.838;2024-03-22T12:01:33;5.15;;;4.20;;
64560;SDS011;50960;46.838;16.838;2024-03-22T12:03:59;5.40;;;4.00;;
64560;SDS011;50960;46.838;16.838;2024-03-22T12:06:26;5.28;;;4.78;;
64560;SDS011;50960;46.838;16.838;2024-03-22T12:08:52;7.10;;;5.15;;
64560;SDS011;50960;46.838;16.838;2024-03-22T12:11:19;5.75;;;4.70;;
64560;SDS011;50960;46.838;16.838;2024-03-22T12:13:46;4.57;;;4.18;;
64560;SDS011;50960;46.838;16.838;2024-03-22T12:16:13;4.70;;;4.18;;
64560;SDS011;50960;46.838;16.838;2024-03-22T12:18:39;5.07;;;4.22;;
64560;SDS011;50960;46.838;16.838;2024-03-22T12:21:06;6.22;;;4.55;;
64560;SDS011;50960;46.838;16.838;2024-03-22T12:23:33;4.53;;;4.18;;
64560;SDS011;50960;46.838;16.838;2024-03-22T12:25:59;4.53;;;4.13;;
64560;SDS011;50960;46.838;16.838;2024-03-22T12:28:26;4.95;;;4.45;;
64560;SDS011;50960;46.838;16.838;2024-03-22T12:30:52;5.22;;;4.72;;
64560;SDS011;50960;46.838;16.838;2024-03-22T12:33:19;5.13;;;4.60;;
64560;SDS011;50960;46.838;16.838;2024-03-22T12:35:45;4.90;;;4.40;;
64560;SDS011;50960;46.838;16.838;2024-03-22T12:38:13;5.05;;;4.20;;
64560;SDS011;50960;46.838;16.838;2024-03-22T12:40:40;4.47;;;4.07;;
64560;SDS011;50960;46.838;16.838;2024-03-22T12:43:08;4.40;;;4.00;;
64560;SDS011;50960;46.838;16.838;2024-03-22T12:45:36;5.25;;;4.57;;
64560;SDS011;50960;46.838;16.838;2024-03-22T12:48:06;5.20;;;3.67;;
64560;SDS011;50960;46.838;16.838;2024-03-22T12:50:32;4.85;;;4.35;;
64560;SDS011;50960;46.838;16.838;2024-03-22T12:53:00;4.28;;;3.88;;
64560;SDS011;50960;46.838;16.838;2024-03-22T12:55:27;4.88;;;4.47;;
64560;SDS011;50960;46.838;16.838;2024-03-22T12:57:57;4.25;;;3.83;;
64560;SDS011;50960;46.838;16.838;2024-03-22T13:00:23;3.85;;;3.47;;
64560;SDS011;50960;46.838;16.838;2024-03-22T13:02:50;3.75;;;3.28;;
64560;SDS011;50960;46.838;16.838;2024-03-22T13:05:17;3.50;;;3.20;;
64560;SDS011;50960;46.838;16.838;2024-03-22T13:07:44;4.88;;;3.72;;
64560;SDS011;50960;46.838;16.838;2024-03-22T13:10:10;3.75;;;3.45;;
64560;SDS011;50960;46.838;16.838;2024-03-22T13:12:37;3.92;;;3.60;;
64560;SDS011;50960;46.838;16.838;2024-03-22T13:15:04;3.97;;;3.67;;
64560;SDS011;50960;46.838;16.838;2024-03-22T13:17:31;4.45;;;3.80;;
64560;SDS011;50960;46.838;16.838;2024-03-22T13:19:58;3.70;;;3.40;;
64560;SDS011;50960;46.838;16.838;2024-03-22T13:22:25;3.72;;;3.30;;
64560;SDS011;50960;46.838;16.838;2024-03-22T13:24:51;4.07;;;3.65;;
64560;SDS011;50960;46.838;16.838;2024-03-22T13:27:18;3.47;;;3.20;;
64560;SDS011;50960;46.838;16.838;2024-03-22T13:29:48;3.90;;;3.50;;
64560;SDS011;50960;46.838;16.838;2024-03-22T13:32:14;3.50;;;3.22;;
64560;SDS011;50960;46.838;16.838;2024-03-22T13:34:41;3.50;;;3.20;;
64560;SDS011;50960;46.838;16.838;2024-03-22T13:37:08;3.95;;;3.38;;
64560;SDS011;50960;46.838;16.838;2024-03-22T13:39:35;3.45;;;3.15;;
64560;SDS011;50960;46.838;16.838;2024-03-22T13:42:02;3.78;;;3.47;;
64560;SDS011;50960;46.838;16.838;2024-03-22T13:44:28;3.30;;;3.10;;
64560;SDS011;50960;46.838;16.838;2024-03-22T13:46:55;3.30;;;3.00;;
64560;SDS011;50960;46.838;16.838;2024-03-22T13:49:21;4.78;;;2.90;;
64560;SDS011;50960;46.838;16.838;2024-03-22T13:51:48;3.58;;;2.70;;
64560;SDS011;50960;46.838;16.838;2024-03-22T13:54:16;3.00;;;2.80;;
64560;SDS011;50960;46.838;16.838;2024-03-22T13:56:43;3.08;;;2.78;;
64560;SDS011;50960;46.838;16.838;2024-03-22T13:59:09;3.55;;;2.80;;
64560;SDS011;50960;46.838;16.838;2024-03-22T14:01:36;2.85;;;2.65;;
64560;SDS011;50960;46.838;16.838;2024-03-22T14:04:03;2.72;;;2.53;;
64560;SDS011;50960;46.838;16.838;2024-03-22T14:06:31;3.20;;;2.80;;
64560;SDS011;50960;46.838;16.838;2024-03-22T14:08:58;3.13;;;2.63;;
64560;SDS011;50960;46.838;16.838;2024-03-22T14:11:27;3.20;;;2.90;;
64560;SDS011;50960;46.838;16.838;2024-03-22T14:13:58;2.75;;;2.55;;
64560;SDS011;50960;46.838;16.838;2024-03-22T14:16:25;2.80;;;2.55;;
64560;SDS011;50960;46.838;16.838;2024-03-22T14:18:52;3.05;;;2.75;;
64560;SDS011;50960;46.838;16.838;2024-03-22T14:21:18;2.88;;;2.58;;
64560;SDS011;50960;46.838;16.838;2024-03-22T14:23:46;3.22;;;2.72;;
64560;SDS011;50960;46.838;16.838;2024-03-22T14:26:12;3.20;;;2.60;;
64560;SDS011;50960;46.838;16.838;2024-03-22T14:28:39;3.03;;;2.83;;